createdAt,value
2018-09-11T00:01:33.679Z,8.53
2018-09-11T00:04:01.351Z,9.17
2018-09-11T00:06:28.927Z,8.50
2018-09-11T00:08:56.924Z,8.60
2018-09-11T00:11:25.004Z,11.37
2018-09-11T00:13:52.994Z,9.67
2018-09-11T00:16:20.615Z,9.30
2018-09-11T00:18:48.413Z,8.43
2018-09-11T00:21:16.318Z,10.10
2018-09-11T00:23:44.368Z,9.53
2018-09-11T00:26:12.143Z,9.93
2018-09-11T00:28:39.963Z,8.70
2018-09-11T00:31:07.738Z,10.10
2018-09-11T00:33:35.427Z,11.03
2018-09-11T00:36:03.728Z,8.67
2018-09-11T00:38:31.360Z,9.10
2018-09-11T00:41:00.023Z,9.20
2018-09-11T00:43:28.505Z,9.17
2018-09-11T00:45:56.147Z,7.83
2018-09-11T00:48:23.674Z,8.40
2018-09-11T00:50:51.451Z,6.93
2018-09-11T00:53:19.306Z,7.43
2018-09-11T00:55:47.459Z,6.90
2018-09-11T00:58:15.038Z,8.70
2018-09-11T01:00:42.903Z,7.47
2018-09-11T01:03:10.470Z,7.37
2018-09-11T01:05:38.205Z,8.00
2018-09-11T01:08:06.063Z,9.17
2018-09-11T01:10:33.754Z,11.50
2018-09-11T01:13:01.332Z,7.73
2018-09-11T01:15:29.590Z,8.23
2018-09-11T01:17:57.419Z,8.20
2018-09-11T01:20:25.085Z,9.77
2018-09-11T01:22:52.736Z,9.27
2018-09-11T01:25:20.403Z,10.90
2018-09-11T01:27:48.888Z,9.10
2018-09-11T01:30:18.908Z,8.40
2018-09-11T01:32:47.669Z,7.37
2018-09-11T01:35:15.436Z,8.77
2018-09-11T01:37:43.056Z,10.77
2018-09-11T01:40:10.673Z,12.67
2018-09-11T01:42:38.295Z,11.50
2018-09-11T01:45:06.067Z,8.93
2018-09-11T01:47:33.767Z,9.20
2018-09-11T01:50:01.475Z,7.97
2018-09-11T01:52:29.292Z,8.27
2018-09-11T01:54:56.919Z,11.20
2018-09-11T01:57:24.829Z,7.80
2018-09-11T01:59:52.671Z,8.73
2018-09-11T02:02:20.681Z,10.40
2018-09-11T02:04:48.316Z,9.87
2018-09-11T02:07:15.979Z,8.83
2018-09-11T02:09:43.617Z,8.63
2018-09-11T02:12:11.387Z,9.00
2018-09-11T02:14:39.063Z,9.03
2018-09-11T02:17:06.782Z,7.90
2018-09-11T02:19:34.493Z,8.33
2018-09-11T02:22:02.527Z,8.80
2018-09-11T02:24:30.803Z,8.13
2018-09-11T02:26:58.327Z,8.00
2018-09-11T02:29:26.126Z,8.27
2018-09-11T02:31:54.591Z,8.30
2018-09-11T02:34:22.323Z,7.53
2018-09-11T02:36:50.163Z,7.73
2018-09-11T02:39:17.935Z,8.73
2018-09-11T02:41:45.801Z,9.50
2018-09-11T02:44:13.532Z,7.90
2018-09-11T02:46:41.868Z,8.03
2018-09-11T02:49:09.452Z,7.63
2018-09-11T02:51:37.386Z,8.00
2018-09-11T02:54:04.988Z,8.17
2018-09-11T02:56:32.796Z,7.97
2018-09-11T02:59:00.483Z,8.07
2018-09-11T03:01:28.159Z,9.03
2018-09-11T03:03:55.947Z,8.50
2018-09-11T03:06:23.707Z,7.60
2018-09-11T03:08:51.587Z,8.00
2018-09-11T03:11:19.499Z,8.30
2018-09-11T03:13:48.107Z,10.23
2018-09-11T03:16:16.011Z,8.33
2018-09-11T03:18:43.741Z,8.27
2018-09-11T03:21:11.559Z,8.20
2018-09-11T03:23:40.111Z,9.33
2018-09-11T03:26:07.712Z,8.13
2018-09-11T03:28:35.655Z,8.97
2018-09-11T03:31:03.615Z,8.77
2018-09-11T03:33:31.596Z,10.60
2018-09-11T03:35:59.259Z,8.67
2018-09-11T03:38:27.045Z,6.80
2018-09-11T03:40:54.746Z,7.67
2018-09-11T03:43:22.919Z,10.77
2018-09-11T03:45:50.827Z,10.13
2018-09-11T03:48:19.847Z,7.47
2018-09-11T03:50:48.818Z,7.80
2018-09-11T03:53:16.851Z,8.33
2018-09-11T03:55:44.771Z,10.23
2018-09-11T03:58:13.062Z,9.30
2018-09-11T04:00:40.796Z,7.67
2018-09-11T04:03:08.416Z,7.87
2018-09-11T04:05:36.393Z,10.27
2018-09-11T04:08:04.011Z,9.23
2018-09-11T04:10:31.759Z,7.00
2018-09-11T04:12:59.443Z,7.13
2018-09-11T04:15:27.043Z,8.90
2018-09-11T04:17:54.769Z,6.93
2018-09-11T04:20:22.704Z,7.00
2018-09-11T04:22:50.378Z,7.53
2018-09-11T04:25:18.121Z,9.53
2018-09-11T04:27:45.736Z,7.23
2018-09-11T04:30:13.430Z,7.90
2018-09-11T04:32:41.160Z,10.03
2018-09-11T04:35:08.776Z,7.40
2018-09-11T04:37:36.440Z,9.70
2018-09-11T04:40:04.836Z,8.50
2018-09-11T04:42:32.699Z,15.90
2018-09-11T04:45:00.568Z,8.67
2018-09-11T04:47:28.216Z,10.20
2018-09-11T04:49:55.750Z,7.13
2018-09-11T04:52:24.673Z,7.50
2018-09-11T04:54:52.639Z,7.93
2018-09-11T04:57:20.300Z,8.60
2018-09-11T04:59:47.987Z,7.23
2018-09-11T05:02:15.517Z,11.97
2018-09-11T05:04:43.201Z,11.20
2018-09-11T05:07:10.856Z,8.40
2018-09-11T05:09:38.575Z,7.67
2018-09-11T05:12:06.280Z,10.40
2018-09-11T05:14:33.979Z,7.10
2018-09-11T05:17:01.724Z,7.13
2018-09-11T05:19:29.561Z,10.73
2018-09-11T05:21:57.267Z,9.87
2018-09-11T05:24:24.943Z,9.57
2018-09-11T05:26:52.603Z,8.20
2018-09-11T05:29:20.180Z,8.97
2018-09-11T05:31:47.822Z,8.23
2018-09-11T05:34:15.515Z,9.63
2018-09-11T05:36:43.047Z,9.23
2018-09-11T05:39:10.800Z,7.40
2018-09-11T05:41:38.494Z,7.00
2018-09-11T05:44:06.827Z,12.93
2018-09-11T05:46:34.583Z,7.80
2018-09-11T05:49:02.547Z,7.90
2018-09-11T05:51:30.487Z,7.77
2018-09-11T05:53:58.515Z,8.10
2018-09-11T05:56:26.055Z,9.70
2018-09-11T05:58:54.067Z,9.80
2018-09-11T06:01:22.410Z,8.37
2018-09-11T06:03:50.123Z,8.77
2018-09-11T06:06:17.738Z,10.80
2018-09-11T06:08:46.168Z,10.60
2018-09-11T06:11:13.807Z,13.23
2018-09-11T06:13:41.609Z,11.80
2018-09-11T06:16:09.255Z,11.40
2018-09-11T06:18:37.212Z,14.37
2018-09-11T06:21:05.360Z,14.77
2018-09-11T06:23:33.086Z,17.93
2018-09-11T06:26:00.702Z,16.10
2018-09-11T06:28:28.481Z,16.00
2018-09-11T06:30:56.355Z,30.63
2018-09-11T06:33:23.919Z,17.73
2018-09-11T06:35:51.842Z,17.50
2018-09-11T06:38:19.679Z,16.47
2018-09-11T06:40:47.414Z,14.47
2018-09-11T06:43:15.284Z,13.67
2018-09-11T06:45:43.043Z,16.50
2018-09-11T06:48:10.703Z,13.97
2018-09-11T06:50:38.295Z,17.57
2018-09-11T06:53:06.315Z,12.97
2018-09-11T06:55:34.187Z,16.07
2018-09-11T06:58:01.827Z,12.87
2018-09-11T07:00:29.641Z,7.13
2018-09-11T07:02:57.343Z,7.30
2018-09-11T07:05:24.934Z,7.20
2018-09-11T07:07:52.795Z,8.00
2018-09-11T07:10:20.456Z,6.27
2018-09-11T07:12:48.220Z,7.37
2018-09-11T07:15:15.890Z,8.37
2018-09-11T07:17:43.520Z,6.57
2018-09-11T07:20:11.598Z,7.13
2018-09-11T07:22:38.902Z,6.13
2018-09-11T07:25:06.667Z,5.17
2018-09-11T07:27:34.268Z,6.20
2018-09-11T07:30:01.891Z,6.00
2018-09-11T07:32:30.169Z,5.90
2018-09-11T07:34:57.946Z,6.00
2018-09-11T07:37:25.571Z,5.83
2018-09-11T07:39:53.475Z,15.20
2018-09-11T07:42:21.329Z,6.13
2018-09-11T07:44:49.019Z,5.73
2018-09-11T07:47:16.715Z,6.53
2018-09-11T07:49:44.473Z,6.87
2018-09-11T07:52:12.071Z,6.50
2018-09-11T07:54:39.771Z,6.17
2018-09-11T07:57:07.574Z,8.67
2018-09-11T07:59:35.172Z,4.90
2018-09-11T08:02:02.903Z,7.93
2018-09-11T08:04:30.764Z,6.03
2018-09-11T08:06:59.024Z,6.43
2018-09-11T08:09:26.772Z,6.30
2018-09-11T08:11:54.558Z,5.37
2018-09-11T08:14:23.136Z,5.93
2018-09-11T08:16:50.796Z,5.80
2018-09-11T08:19:18.677Z,7.17
2018-09-11T08:21:46.372Z,5.00
2018-09-11T08:24:13.981Z,5.30
2018-09-11T08:26:41.537Z,5.40
2018-09-11T08:29:09.304Z,5.90
2018-09-11T08:31:36.856Z,4.10
2018-09-11T08:34:04.730Z,6.03
2018-09-11T08:36:32.349Z,10.27
2018-09-11T08:38:59.939Z,5.10
2018-09-11T08:41:27.640Z,6.33
2018-09-11T08:43:55.295Z,5.70
2018-09-11T08:46:23.000Z,4.07
2018-09-11T08:48:50.672Z,4.17
2018-09-11T08:51:18.219Z,3.93
2018-09-11T08:53:46.028Z,4.30
2018-09-11T08:56:13.711Z,5.73
2018-09-11T08:58:41.533Z,6.77
2018-09-11T09:01:09.235Z,5.70
2018-09-11T09:03:37.421Z,4.20
2018-09-11T09:06:05.332Z,4.77
2018-09-11T09:08:33.040Z,4.70
2018-09-11T09:11:00.696Z,4.40
2018-09-11T09:13:28.299Z,3.50
2018-09-11T09:15:56.000Z,3.63
2018-09-11T09:18:23.895Z,4.50
2018-09-11T09:20:51.457Z,4.50
2018-09-11T09:23:19.477Z,5.60
2018-09-11T09:25:47.284Z,3.10
2018-09-11T09:28:15.006Z,4.57
2018-09-11T09:30:43.202Z,4.40
2018-09-11T09:33:11.020Z,4.13
2018-09-11T09:35:38.583Z,4.90
2018-09-11T09:38:06.187Z,4.40
2018-09-11T09:40:33.838Z,3.57
2018-09-11T09:43:01.379Z,3.60
2018-09-11T09:45:29.161Z,4.50
2018-09-11T09:47:56.951Z,5.20
2018-09-11T09:50:25.424Z,3.60
2018-09-11T09:52:53.103Z,4.80
2018-09-11T09:55:20.743Z,4.80
2018-09-11T09:57:48.559Z,3.73
2018-09-11T10:00:21.839Z,3.33
2018-09-11T10:02:49.613Z,4.40
2018-09-11T10:05:17.328Z,5.30
2018-09-11T10:07:44.897Z,4.20
2018-09-11T10:10:13.204Z,3.27
2018-09-11T10:12:40.783Z,3.73
2018-09-11T10:15:09.940Z,3.53
2018-09-11T10:17:37.614Z,3.10
2018-09-11T10:20:05.967Z,3.10
2018-09-11T10:22:33.607Z,3.73
2018-09-11T10:27:21.090Z,3.37
2018-09-11T10:29:48.737Z,7.77
2018-09-11T10:32:16.320Z,3.40
2018-09-11T10:34:44.069Z,4.73
2018-09-11T10:37:11.703Z,4.10
2018-09-11T10:39:39.288Z,3.70
2018-09-11T10:42:07.028Z,3.60
2018-09-11T10:44:34.955Z,3.70
2018-09-11T10:47:02.615Z,3.70
2018-09-11T10:49:30.364Z,6.27
2018-09-11T10:51:58.121Z,4.03
2018-09-11T10:54:26.411Z,5.20
2018-09-11T10:56:54.066Z,4.83
2018-09-11T10:59:21.843Z,6.00
2018-09-11T11:01:49.617Z,4.70
2018-09-11T11:04:17.518Z,4.03
2018-09-11T11:06:45.256Z,3.87
2018-09-11T11:09:12.886Z,3.93
2018-09-11T11:11:40.838Z,4.27
2018-09-11T11:14:08.968Z,3.90
2018-09-11T11:16:36.872Z,4.60
2018-09-11T11:19:04.819Z,5.20
2018-09-11T11:21:32.562Z,3.87
2018-09-11T11:24:00.262Z,5.27
2018-09-11T11:26:28.128Z,4.27
2018-09-11T11:28:55.863Z,4.80
2018-09-11T11:31:23.440Z,5.40
2018-09-11T11:33:51.667Z,5.13
2018-09-11T11:36:19.620Z,4.57
2018-09-11T11:38:47.168Z,4.20
2018-09-11T11:41:14.813Z,3.83
2018-09-11T11:43:42.827Z,4.23
2018-09-11T11:46:10.472Z,4.00
2018-09-11T11:48:38.164Z,5.30
2018-09-11T11:51:05.923Z,4.40
2018-09-11T11:53:34.320Z,4.17
2018-09-11T11:56:02.159Z,5.57
2018-09-11T11:58:29.823Z,5.00
2018-09-11T12:00:57.479Z,3.73
2018-09-11T12:03:25.277Z,4.13
2018-09-11T12:05:53.194Z,4.23
2018-09-11T12:08:20.792Z,4.27
2018-09-11T12:10:48.631Z,4.63
2018-09-11T12:13:17.015Z,4.23
2018-09-11T12:15:44.653Z,4.27
2018-09-11T12:18:12.410Z,4.53
2018-09-11T12:20:40.160Z,4.57
2018-09-11T12:23:07.907Z,4.70
2018-09-11T12:25:36.722Z,4.60
2018-09-11T12:28:04.413Z,5.50
2018-09-11T12:30:32.225Z,4.20
2018-09-11T12:33:00.351Z,4.63
2018-09-11T12:35:28.651Z,4.87
2018-09-11T12:37:56.271Z,6.43
2018-09-11T12:40:24.784Z,4.70
2018-09-11T12:42:52.519Z,3.90
2018-09-11T12:45:20.083Z,4.63
2018-09-11T12:47:48.070Z,4.60
2018-09-11T12:50:15.790Z,4.40
2018-09-11T12:52:43.659Z,4.30
2018-09-11T12:55:12.222Z,4.80
2018-09-11T12:57:39.967Z,7.17
2018-09-11T13:00:08.556Z,6.17
2018-09-11T13:02:36.926Z,4.90
2018-09-11T13:05:05.208Z,3.57
2018-09-11T13:07:33.113Z,3.60
2018-09-11T13:10:00.990Z,4.50
2018-09-11T13:12:28.780Z,4.33
2018-09-11T13:14:56.848Z,5.20
2018-09-11T13:17:25.289Z,5.17
2018-09-11T13:19:53.154Z,6.03
2018-09-11T13:22:21.015Z,4.47
2018-09-11T13:24:48.688Z,4.30
2018-09-11T13:27:16.463Z,4.57
2018-09-11T13:29:44.263Z,4.50
2018-09-11T13:32:11.947Z,4.60
2018-09-11T13:34:39.680Z,4.43
2018-09-11T13:37:07.279Z,6.10
2018-09-11T13:39:35.071Z,4.43
2018-09-11T13:42:02.897Z,4.93
2018-09-11T13:44:30.673Z,4.33
2018-09-11T13:46:58.420Z,4.33
2018-09-11T13:49:26.699Z,5.30
2018-09-11T13:51:54.429Z,4.90
2018-09-11T13:54:22.040Z,5.30
2018-09-11T13:56:49.764Z,5.63
2018-09-11T13:59:17.705Z,5.37
2018-09-11T14:01:45.372Z,4.83
2018-09-11T14:04:13.902Z,5.07
2018-09-11T14:06:41.707Z,5.00
2018-09-11T14:09:13.070Z,5.17
2018-09-11T14:11:41.392Z,5.73
2018-09-11T14:14:09.537Z,5.37
2018-09-11T14:16:37.299Z,4.80
2018-09-11T14:19:05.415Z,5.47
2018-09-11T14:21:33.362Z,5.33
2018-09-11T14:24:02.173Z,4.80
2018-09-11T14:26:30.317Z,5.87
2018-09-11T14:28:57.920Z,7.67
2018-09-11T14:31:26.392Z,6.60
2018-09-11T14:33:54.340Z,5.07
2018-09-11T14:36:21.944Z,5.10
2018-09-11T14:38:49.545Z,5.87
2018-09-11T14:41:17.263Z,6.43
2018-09-11T14:43:45.033Z,5.23
2018-09-11T14:46:12.794Z,5.20
2018-09-11T14:48:40.459Z,5.30
2018-09-11T14:51:08.188Z,7.30
2018-09-11T14:53:36.111Z,5.20
2018-09-11T14:56:03.933Z,5.17
2018-09-11T14:58:32.832Z,5.40
2018-09-11T15:01:00.420Z,6.13
2018-09-11T15:03:28.096Z,5.97
2018-09-11T15:05:56.008Z,6.70
2018-09-11T15:08:23.548Z,4.97
2018-09-11T15:10:51.316Z,5.57
2018-09-11T15:13:19.339Z,4.33
2018-09-11T15:15:47.520Z,4.93
2018-09-11T15:18:15.389Z,4.93
2018-09-11T15:20:43.158Z,5.00
2018-09-11T15:23:11.233Z,5.20
2018-09-11T15:25:39.148Z,5.60
2018-09-11T15:28:06.723Z,4.90
2018-09-11T15:30:34.351Z,4.90
2018-09-11T15:33:02.828Z,4.97
2018-09-11T15:35:30.578Z,5.70
2018-09-11T15:37:58.748Z,6.40
2018-09-11T15:40:26.440Z,5.80
2018-09-11T15:42:54.048Z,5.70
2018-09-11T15:45:21.911Z,6.80
2018-09-11T15:47:49.716Z,4.73
2018-09-11T15:50:18.235Z,5.40
2018-09-11T15:52:45.873Z,4.83
2018-09-11T15:55:13.597Z,4.90
2018-09-11T15:57:41.912Z,5.50
2018-09-11T16:00:11.600Z,5.23
2018-09-11T16:02:39.267Z,5.93
2018-09-11T16:05:07.145Z,4.40
2018-09-11T16:07:34.723Z,4.40
2018-09-11T16:10:02.464Z,4.97
2018-09-11T16:12:30.101Z,4.70
2018-09-11T16:14:57.868Z,4.77
2018-09-11T16:17:25.543Z,4.90
2018-09-11T16:19:53.339Z,5.07
2018-09-11T16:22:20.962Z,6.10
2018-09-11T16:24:48.699Z,4.93
2018-09-11T16:27:16.500Z,4.87
2018-09-11T16:29:44.322Z,5.23
2018-09-11T16:32:12.403Z,5.10
2018-09-11T16:34:40.245Z,6.07
2018-09-11T16:37:07.875Z,7.10
2018-09-11T16:39:35.672Z,4.57
2018-09-11T16:42:03.378Z,5.07
2018-09-11T16:44:31.699Z,5.13
2018-09-11T16:46:59.454Z,7.17
2018-09-11T16:49:27.131Z,5.97
2018-09-11T16:51:54.788Z,6.00
2018-09-11T16:54:23.357Z,4.77
2018-09-11T16:56:51.587Z,5.53
2018-09-11T16:59:19.349Z,5.20
2018-09-11T17:01:47.081Z,7.53
2018-09-11T17:04:14.764Z,7.10
2018-09-11T17:06:42.535Z,5.00
2018-09-11T17:09:10.566Z,6.10
2018-09-11T17:11:39.121Z,5.30
2018-09-11T17:14:06.975Z,5.90
2018-09-11T17:16:34.641Z,5.77
2018-09-11T17:19:02.386Z,5.40
2018-09-11T17:21:30.872Z,6.67
2018-09-11T17:23:58.431Z,5.93
2018-09-11T17:26:26.266Z,5.73
2018-09-11T17:28:54.248Z,6.97
2018-09-11T17:31:22.203Z,5.70
2018-09-11T17:33:50.158Z,5.40
2018-09-11T17:36:17.963Z,5.33
2018-09-11T17:38:45.589Z,5.30
2018-09-11T17:41:13.372Z,5.60
2018-09-11T17:43:41.145Z,5.57
2018-09-11T17:46:09.671Z,7.37
2018-09-11T17:48:37.463Z,5.73
2018-09-11T17:51:05.463Z,6.90
2018-09-11T17:53:34.771Z,7.63
2018-09-11T17:56:02.470Z,5.83
2018-09-11T17:58:30.872Z,7.13
2018-09-11T18:00:58.780Z,6.30
2018-09-11T18:03:26.712Z,6.43
2018-09-11T18:05:54.755Z,5.40
2018-09-11T18:08:22.532Z,5.33
2018-09-11T18:10:50.352Z,7.60
2018-09-11T18:13:19.002Z,10.90
2018-09-11T18:15:47.660Z,5.73
2018-09-11T18:18:15.424Z,6.30
2018-09-11T18:20:43.232Z,10.93
2018-09-11T18:23:11.083Z,5.40
2018-09-11T18:25:38.831Z,8.53
2018-09-11T18:28:06.591Z,5.40
2018-09-11T18:30:34.189Z,5.90
2018-09-11T18:33:02.702Z,6.57
2018-09-11T18:35:30.371Z,6.20
2018-09-11T18:37:57.953Z,6.10
2018-09-11T18:40:25.937Z,10.87
2018-09-11T18:42:53.952Z,5.70
2018-09-11T18:45:22.267Z,5.83
2018-09-11T18:47:50.833Z,6.63
2018-09-11T18:50:19.161Z,6.33
2018-09-11T18:52:47.875Z,5.83
2018-09-11T18:55:15.682Z,7.77
2018-09-11T18:57:43.678Z,6.47
2018-09-11T19:00:11.803Z,6.37
2018-09-11T19:02:39.523Z,5.93
2018-09-11T19:05:08.199Z,5.47
2018-09-11T19:07:35.846Z,5.70
2018-09-11T19:10:03.569Z,6.47
2018-09-11T19:12:31.431Z,6.20
2018-09-11T19:14:59.156Z,6.47
2018-09-11T19:17:27.015Z,6.77
2018-09-11T19:19:54.906Z,6.13
2018-09-11T19:22:22.571Z,7.63
2018-09-11T19:24:50.351Z,6.13
2018-09-11T19:27:17.949Z,5.70
2018-09-11T19:29:45.615Z,6.40
2018-09-11T19:32:14.028Z,6.10
2018-09-11T19:34:42.053Z,6.13
2018-09-11T19:37:09.732Z,7.57
2018-09-11T19:39:37.632Z,6.43
2018-09-11T19:42:05.480Z,8.53
2018-09-11T19:44:33.100Z,6.80
2018-09-11T19:47:00.832Z,6.37
2018-09-11T19:49:28.495Z,11.80
2018-09-11T19:51:57.171Z,8.00
2018-09-11T19:54:24.752Z,7.30
2018-09-11T19:56:52.356Z,10.77
2018-09-11T19:59:20.208Z,6.63
2018-09-11T20:01:48.610Z,8.87
2018-09-11T20:04:16.940Z,6.70
2018-09-11T20:06:44.776Z,7.10
2018-09-11T20:09:13.311Z,5.93
2018-09-11T20:11:41.220Z,7.53
2018-09-11T20:14:10.300Z,7.43
2018-09-11T20:16:38.166Z,7.80
2018-09-11T20:19:06.676Z,6.77
2018-09-11T20:21:34.717Z,7.27
2018-09-11T20:24:02.467Z,6.27
2018-09-11T20:26:30.936Z,7.93
2018-09-11T20:28:58.603Z,8.60
2018-09-11T20:31:26.204Z,7.67
2018-09-11T20:33:54.033Z,8.80
2018-09-11T20:36:22.007Z,7.07
2018-09-11T20:38:50.254Z,10.83
2018-09-11T20:41:17.852Z,10.67
2018-09-11T20:43:45.623Z,10.40
2018-09-11T20:46:13.680Z,9.17
2018-09-11T20:48:41.299Z,14.60
2018-09-11T20:51:08.959Z,10.60
2018-09-11T20:53:36.827Z,13.00
2018-09-11T20:56:04.734Z,11.97
2018-09-11T20:58:32.378Z,15.20
2018-09-11T21:01:00.366Z,12.60
2018-09-11T21:03:29.131Z,13.87
2018-09-11T21:05:56.824Z,14.97
2018-09-11T21:08:24.380Z,15.43
2018-09-11T21:10:52.163Z,15.00
2018-09-11T21:13:20.306Z,12.60
2018-09-11T21:15:47.836Z,13.00
2018-09-11T21:18:16.774Z,13.13
2018-09-11T21:20:44.550Z,11.50
2018-09-11T21:23:12.873Z,12.33
2018-09-11T21:25:40.446Z,11.50
2018-09-11T21:28:08.337Z,13.10
2018-09-11T21:30:36.015Z,12.13
2018-09-11T21:33:03.754Z,11.87
2018-09-11T21:35:32.222Z,10.90
2018-09-11T21:38:00.468Z,10.87
2018-09-11T21:40:28.204Z,12.50
2018-09-11T21:42:56.067Z,9.90
2018-09-11T21:45:23.843Z,12.37
2018-09-11T21:47:52.058Z,13.80
2018-09-11T21:50:19.858Z,15.13
2018-09-11T21:52:47.548Z,12.13
2018-09-11T21:55:15.079Z,12.27
2018-09-11T21:57:42.675Z,12.20
2018-09-11T22:00:11.753Z,12.13
2018-09-11T22:02:39.679Z,10.40
2018-09-11T22:05:07.923Z,13.13
2018-09-11T22:07:35.539Z,10.70
2018-09-11T22:10:03.656Z,13.00
2018-09-11T22:12:31.771Z,10.57
2018-09-11T22:14:59.537Z,13.63
2018-09-11T22:17:27.419Z,11.37
2018-09-11T22:19:55.143Z,11.47
2018-09-11T22:22:22.803Z,11.07
2018-09-11T22:24:51.145Z,13.23
2018-09-11T22:27:19.739Z,12.33
2018-09-11T22:29:47.656Z,10.67
2018-09-11T22:32:15.307Z,11.00
2018-09-11T22:34:42.971Z,13.30
2018-09-11T22:37:10.558Z,10.90
2018-09-11T22:39:38.363Z,12.77
2018-09-11T22:42:06.267Z,13.50
2018-09-11T22:44:34.157Z,11.13
2018-09-11T22:47:02.363Z,13.73
2018-09-11T22:49:29.911Z,13.13
2018-09-11T22:51:58.324Z,14.23
2018-09-11T22:54:25.888Z,13.93
2018-09-11T22:56:53.592Z,11.80
2018-09-11T22:59:21.574Z,11.67
2018-09-11T23:01:49.343Z,11.47
2018-09-11T23:04:16.903Z,15.37
2018-09-11T23:06:45.301Z,13.90
2018-09-11T23:09:12.836Z,12.77
2018-09-11T23:11:40.798Z,14.00
2018-09-11T23:14:08.471Z,12.03
2018-09-11T23:16:36.276Z,12.13
2018-09-11T23:19:04.852Z,12.27
2018-09-11T23:21:32.822Z,14.83
2018-09-11T23:24:00.782Z,13.40
2018-09-11T23:26:28.576Z,10.90
2018-09-11T23:28:56.331Z,12.33
2018-09-11T23:31:24.031Z,14.10
2018-09-11T23:33:52.167Z,14.93
2018-09-11T23:36:19.792Z,13.50
2018-09-11T23:38:47.495Z,14.33
2018-09-11T23:41:15.414Z,12.03
2018-09-11T23:43:44.057Z,12.60
2018-09-11T23:46:11.885Z,12.70
2018-09-11T23:48:39.562Z,12.50
2018-09-11T23:51:07.396Z,14.27
2018-09-11T23:53:35.085Z,11.30
2018-09-11T23:56:02.660Z,13.43
2018-09-11T23:58:30.263Z,13.47
